Pagrindinis puslapis
METAR-TAF:

METAR-TAF

Oro uostai :

St. Mary's, Aliaska, Jungtinės Amerikos Valstijos

platuma: 62-03N, ilguma: 163-18W, Aukštis: 95 m

Dabartinis oras

Ataskaita buvo paskelbta 15 minutes, ne 07:02 UTC
Vėjas 3 kt iš Šiaurės Rytų
Temperatūra -18°C
Drėgmė 65%
Slėgis 1015 hPa
Matomumas: 16.1 km
Giedras dangus

METAR: PASM 280702Z AUTO 04003KT 10SM CLR M18/M23 A2998 RMK AO2 SLP168 T11781228 FZRANO

Laikas: 22:17 (07:17 UTC)


TAF: trūkstamas

Orai ataskaitas ir orų prognozės (METAR, TAF).

turimą stotys yra geltonos ir raudonos taškus žemėlapyje.

Perkelti pele per norėdami pamatyti stoties vardą.

Tada spustelėkite, norėdami matyti oro stebėjimo ir prognozės.

Norėdami pakeisti žemėlapį: spustelėkite ant žalios mygtukų su juodo kryžiaus žemyn,; žalią mygtuką su brūkšneliu, jei norite nutolinti; arba žalių rodyklių gretimoms žemėlapius.


METAR-TAF: